sensor_id;sensor_type;location;lat;lon;timestamp;P1;durP1;ratioP1;P2;durP2;ratioP2
37157;SDS011;23050;51.776;22.638;2022-12-29T00:01:31;21.60;;;10.10;;
37157;SDS011;23050;51.776;22.638;2022-12-29T00:03:57;20.70;;;9.32;;
37157;SDS011;23050;51.776;22.638;2022-12-29T00:06:23;21.63;;;9.82;;
37157;SDS011;23050;51.776;22.638;2022-12-29T00:08:49;17.10;;;8.02;;
37157;SDS011;23050;51.776;22.638;2022-12-29T00:11:17;18.02;;;8.77;;
37157;SDS011;23050;51.776;22.638;2022-12-29T00:13:44;18.90;;;9.63;;
37157;SDS011;23050;51.776;22.638;2022-12-29T00:16:29;16.08;;;7.15;;
37157;SDS011;23050;51.776;22.638;2022-12-29T00:18:55;23.88;;;9.25;;
37157;SDS011;23050;51.776;22.638;2022-12-29T00:21:22;18.17;;;8.48;;
37157;SDS011;23050;51.776;22.638;2022-12-29T00:24:25;21.98;;;9.25;;
37157;SDS011;23050;51.776;22.638;2022-12-29T00:29:47;16.95;;;8.57;;
37157;SDS011;23050;51.776;22.638;2022-12-29T00:32:31;17.75;;;8.40;;
37157;SDS011;23050;51.776;22.638;2022-12-29T00:35:23;17.80;;;8.18;;
37157;SDS011;23050;51.776;22.638;2022-12-29T00:37:51;15.73;;;8.13;;
37157;SDS011;23050;51.776;22.638;2022-12-29T00:40:38;16.13;;;8.32;;
37157;SDS011;23050;51.776;22.638;2022-12-29T00:43:23;17.48;;;7.85;;
37157;SDS011;23050;51.776;22.638;2022-12-29T00:46:07;16.98;;;7.95;;
37157;SDS011;23050;51.776;22.638;2022-12-29T00:48:33;17.30;;;8.48;;
37157;SDS011;23050;51.776;22.638;2022-12-29T00:51:17;20.67;;;8.70;;
37157;SDS011;23050;51.776;22.638;2022-12-29T00:53:42;18.30;;;9.10;;
37157;SDS011;23050;51.776;22.638;2022-12-29T00:56:08;15.63;;;8.65;;
37157;SDS011;23050;51.776;22.638;2022-12-29T00:58:33;19.65;;;8.77;;
37157;SDS011;23050;51.776;22.638;2022-12-29T01:01:02;18.65;;;8.32;;
37157;SDS011;23050;51.776;22.638;2022-12-29T01:03:30;20.60;;;8.93;;
37157;SDS011;23050;51.776;22.638;2022-12-29T01:05:55;16.60;;;7.65;;
37157;SDS011;23050;51.776;22.638;2022-12-29T01:08:21;15.02;;;8.57;;
37157;SDS011;23050;51.776;22.638;2022-12-29T01:10:56;17.20;;;7.93;;
37157;SDS011;23050;51.776;22.638;2022-12-29T01:13:26;21.20;;;9.75;;
37157;SDS011;23050;51.776;22.638;2022-12-29T01:15:53;16.67;;;8.55;;
37157;SDS011;23050;51.776;22.638;2022-12-29T01:18:19;15.82;;;7.95;;
37157;SDS011;23050;51.776;22.638;2022-12-29T01:20:45;16.80;;;7.68;;
37157;SDS011;23050;51.776;22.638;2022-12-29T01:23:10;18.80;;;9.18;;
37157;SDS011;23050;51.776;22.638;2022-12-29T01:25:36;15.85;;;8.25;;
37157;SDS011;23050;51.776;22.638;2022-12-29T01:28:02;16.13;;;7.65;;
37157;SDS011;23050;51.776;22.638;2022-12-29T01:30:27;14.02;;;7.40;;
37157;SDS011;23050;51.776;22.638;2022-12-29T01:32:53;15.90;;;8.27;;
37157;SDS011;23050;51.776;22.638;2022-12-29T01:35:19;16.40;;;8.32;;
37157;SDS011;23050;51.776;22.638;2022-12-29T01:37:44;15.95;;;8.23;;
37157;SDS011;23050;51.776;22.638;2022-12-29T01:40:10;15.38;;;7.43;;
37157;SDS011;23050;51.776;22.638;2022-12-29T01:42:36;15.75;;;7.55;;
37157;SDS011;23050;51.776;22.638;2022-12-29T01:45:04;15.20;;;7.22;;
37157;SDS011;23050;51.776;22.638;2022-12-29T01:50:12;12.48;;;6.22;;
37157;SDS011;23050;51.776;22.638;2022-12-29T01:53:00;14.40;;;7.22;;
37157;SDS011;23050;51.776;22.638;2022-12-29T01:55:33;15.63;;;7.63;;
37157;SDS011;23050;51.776;22.638;2022-12-29T01:58:03;13.57;;;7.80;;
37157;SDS011;23050;51.776;22.638;2022-12-29T02:00:30;16.55;;;7.78;;
37157;SDS011;23050;51.776;22.638;2022-12-29T02:02:56;15.95;;;7.57;;
37157;SDS011;23050;51.776;22.638;2022-12-29T02:08:06;13.90;;;7.40;;
37157;SDS011;23050;51.776;22.638;2022-12-29T02:10:34;15.15;;;7.72;;
37157;SDS011;23050;51.776;22.638;2022-12-29T02:13:00;14.88;;;7.72;;
37157;SDS011;23050;51.776;22.638;2022-12-29T02:15:31;14.05;;;7.05;;
37157;SDS011;23050;51.776;22.638;2022-12-29T02:18:09;14.32;;;7.63;;
37157;SDS011;23050;51.776;22.638;2022-12-29T02:29:58;15.75;;;7.75;;
37157;SDS011;23050;51.776;22.638;2022-12-29T02:50:59;15.02;;;7.47;;
37157;SDS011;23050;51.776;22.638;2022-12-29T02:53:32;14.77;;;7.80;;
37157;SDS011;23050;51.776;22.638;2022-12-29T02:56:18;12.93;;;6.93;;
37157;SDS011;23050;51.776;22.638;2022-12-29T02:58:44;15.82;;;8.60;;
37157;SDS011;23050;51.776;22.638;2022-12-29T03:06:52;15.18;;;7.13;;
37157;SDS011;23050;51.776;22.638;2022-12-29T03:09:40;13.73;;;6.80;;
37157;SDS011;23050;51.776;22.638;2022-12-29T03:12:33;19.38;;;7.97;;
37157;SDS011;23050;51.776;22.638;2022-12-29T03:15:29;14.98;;;6.97;;
37157;SDS011;23050;51.776;22.638;2022-12-29T03:18:37;12.82;;;7.53;;
37157;SDS011;23050;51.776;22.638;2022-12-29T03:21:27;12.18;;;6.53;;
37157;SDS011;23050;51.776;22.638;2022-12-29T03:24:34;13.02;;;7.25;;
37157;SDS011;23050;51.776;22.638;2022-12-29T03:27:04;14.57;;;7.22;;
37157;SDS011;23050;51.776;22.638;2022-12-29T03:29:33;16.23;;;7.88;;
37157;SDS011;23050;51.776;22.638;2022-12-29T03:32:04;14.55;;;6.85;;
37157;SDS011;23050;51.776;22.638;2022-12-29T03:34:32;13.75;;;7.50;;
37157;SDS011;23050;51.776;22.638;2022-12-29T03:37:03;13.15;;;6.90;;
37157;SDS011;23050;51.776;22.638;2022-12-29T03:39:34;12.27;;;6.97;;
37157;SDS011;23050;51.776;22.638;2022-12-29T03:42:05;16.52;;;7.63;;
37157;SDS011;23050;51.776;22.638;2022-12-29T03:44:37;14.75;;;8.07;;
37157;SDS011;23050;51.776;22.638;2022-12-29T03:47:05;12.38;;;6.63;;
37157;SDS011;23050;51.776;22.638;2022-12-29T03:49:31;14.32;;;7.18;;
37157;SDS011;23050;51.776;22.638;2022-12-29T03:51:56;15.77;;;8.63;;
37157;SDS011;23050;51.776;22.638;2022-12-29T03:54:22;16.40;;;7.55;;
37157;SDS011;23050;51.776;22.638;2022-12-29T03:56:48;14.60;;;7.25;;
37157;SDS011;23050;51.776;22.638;2022-12-29T03:59:13;11.55;;;6.72;;
37157;SDS011;23050;51.776;22.638;2022-12-29T04:01:39;12.65;;;7.25;;
37157;SDS011;23050;51.776;22.638;2022-12-29T04:04:04;14.38;;;8.27;;
37157;SDS011;23050;51.776;22.638;2022-12-29T04:06:30;12.10;;;6.88;;
37157;SDS011;23050;51.776;22.638;2022-12-29T04:08:55;13.27;;;7.07;;
37157;SDS011;23050;51.776;22.638;2022-12-29T04:11:21;15.38;;;7.43;;
37157;SDS011;23050;51.776;22.638;2022-12-29T04:13:47;13.15;;;6.15;;
37157;SDS011;23050;51.776;22.638;2022-12-29T04:16:13;12.05;;;6.70;;
37157;SDS011;23050;51.776;22.638;2022-12-29T04:18:38;16.88;;;7.35;;
37157;SDS011;23050;51.776;22.638;2022-12-29T04:21:04;15.43;;;8.13;;
37157;SDS011;23050;51.776;22.638;2022-12-29T04:23:31;13.32;;;7.55;;
37157;SDS011;23050;51.776;22.638;2022-12-29T04:25:59;12.55;;;6.70;;
37157;SDS011;23050;51.776;22.638;2022-12-29T04:28:25;13.27;;;6.78;;
37157;SDS011;23050;51.776;22.638;2022-12-29T04:30:51;14.88;;;7.45;;
37157;SDS011;23050;51.776;22.638;2022-12-29T04:33:17;11.07;;;6.25;;
37157;SDS011;23050;51.776;22.638;2022-12-29T04:35:43;13.00;;;6.93;;
37157;SDS011;23050;51.776;22.638;2022-12-29T04:38:09;13.40;;;7.10;;
37157;SDS011;23050;51.776;22.638;2022-12-29T04:40:35;12.77;;;6.68;;
37157;SDS011;23050;51.776;22.638;2022-12-29T04:43:02;13.52;;;7.50;;
37157;SDS011;23050;51.776;22.638;2022-12-29T04:45:28;13.80;;;7.00;;
37157;SDS011;23050;51.776;22.638;2022-12-29T04:47:53;13.18;;;6.82;;
37157;SDS011;23050;51.776;22.638;2022-12-29T04:50:19;15.38;;;6.65;;
37157;SDS011;23050;51.776;22.638;2022-12-29T04:52:44;13.35;;;7.00;;
37157;SDS011;23050;51.776;22.638;2022-12-29T04:55:10;14.45;;;8.13;;
37157;SDS011;23050;51.776;22.638;2022-12-29T04:57:36;14.77;;;6.75;;
37157;SDS011;23050;51.776;22.638;2022-12-29T05:00:01;15.48;;;8.05;;
37157;SDS011;23050;51.776;22.638;2022-12-29T05:02:28;13.63;;;7.45;;
37157;SDS011;23050;51.776;22.638;2022-12-29T05:04:53;17.52;;;8.60;;
37157;SDS011;23050;51.776;22.638;2022-12-29T05:07:19;17.75;;;8.38;;
37157;SDS011;23050;51.776;22.638;2022-12-29T05:09:44;14.18;;;7.75;;
37157;SDS011;23050;51.776;22.638;2022-12-29T05:12:10;17.23;;;8.88;;
37157;SDS011;23050;51.776;22.638;2022-12-29T05:14:35;17.15;;;9.13;;
37157;SDS011;23050;51.776;22.638;2022-12-29T05:17:01;16.58;;;9.02;;
37157;SDS011;23050;51.776;22.638;2022-12-29T05:19:27;15.43;;;8.90;;
37157;SDS011;23050;51.776;22.638;2022-12-29T05:21:52;14.57;;;8.65;;
37157;SDS011;23050;51.776;22.638;2022-12-29T05:24:19;16.42;;;8.57;;
37157;SDS011;23050;51.776;22.638;2022-12-29T05:26:45;14.40;;;8.57;;
37157;SDS011;23050;51.776;22.638;2022-12-29T05:29:10;14.43;;;8.02;;
37157;SDS011;23050;51.776;22.638;2022-12-29T05:31:36;17.65;;;9.52;;
37157;SDS011;23050;51.776;22.638;2022-12-29T05:34:01;17.73;;;9.10;;
37157;SDS011;23050;51.776;22.638;2022-12-29T05:36:27;20.35;;;8.98;;
37157;SDS011;23050;51.776;22.638;2022-12-29T05:38:53;13.35;;;7.45;;
37157;SDS011;23050;51.776;22.638;2022-12-29T05:41:18;13.00;;;6.97;;
37157;SDS011;23050;51.776;22.638;2022-12-29T05:43:44;18.83;;;7.95;;
37157;SDS011;23050;51.776;22.638;2022-12-29T05:46:10;14.38;;;7.53;;
37157;SDS011;23050;51.776;22.638;2022-12-29T05:48:35;14.40;;;8.48;;
37157;SDS011;23050;51.776;22.638;2022-12-29T05:51:01;15.05;;;7.18;;
37157;SDS011;23050;51.776;22.638;2022-12-29T05:53:26;11.93;;;7.18;;
37157;SDS011;23050;51.776;22.638;2022-12-29T05:55:52;14.38;;;7.72;;
37157;SDS011;23050;51.776;22.638;2022-12-29T05:58:17;12.63;;;8.32;;
37157;SDS011;23050;51.776;22.638;2022-12-29T06:00:43;13.48;;;7.22;;
37157;SDS011;23050;51.776;22.638;2022-12-29T06:03:09;13.98;;;7.15;;
37157;SDS011;23050;51.776;22.638;2022-12-29T06:05:35;14.98;;;7.40;;
37157;SDS011;23050;51.776;22.638;2022-12-29T06:08:00;14.15;;;7.63;;
37157;SDS011;23050;51.776;22.638;2022-12-29T06:10:26;11.00;;;7.00;;
37157;SDS011;23050;51.776;22.638;2022-12-29T06:12:52;12.23;;;7.15;;
37157;SDS011;23050;51.776;22.638;2022-12-29T06:15:17;14.32;;;7.38;;
37157;SDS011;23050;51.776;22.638;2022-12-29T06:17:43;17.45;;;7.57;;
37157;SDS011;23050;51.776;22.638;2022-12-29T06:20:09;13.25;;;6.60;;
37157;SDS011;23050;51.776;22.638;2022-12-29T06:22:35;13.73;;;7.63;;
37157;SDS011;23050;51.776;22.638;2022-12-29T06:25:01;12.38;;;7.05;;
37157;SDS011;23050;51.776;22.638;2022-12-29T06:27:27;16.52;;;8.18;;
37157;SDS011;23050;51.776;22.638;2022-12-29T06:29:53;13.85;;;7.28;;
37157;SDS011;23050;51.776;22.638;2022-12-29T06:32:18;14.20;;;7.78;;
37157;SDS011;23050;51.776;22.638;2022-12-29T06:34:44;12.73;;;6.90;;
37157;SDS011;23050;51.776;22.638;2022-12-29T06:37:10;15.50;;;8.15;;
37157;SDS011;23050;51.776;22.638;2022-12-29T06:39:36;15.35;;;8.23;;
37157;SDS011;23050;51.776;22.638;2022-12-29T06:42:01;16.70;;;8.52;;
37157;SDS011;23050;51.776;22.638;2022-12-29T06:44:27;16.40;;;7.97;;
37157;SDS011;23050;51.776;22.638;2022-12-29T06:46:53;14.30;;;7.75;;
37157;SDS011;23050;51.776;22.638;2022-12-29T06:49:19;13.52;;;6.65;;
37157;SDS011;23050;51.776;22.638;2022-12-29T06:51:44;16.45;;;8.18;;
37157;SDS011;23050;51.776;22.638;2022-12-29T06:54:10;13.98;;;7.55;;
37157;SDS011;23050;51.776;22.638;2022-12-29T06:56:36;14.55;;;8.15;;
37157;SDS011;23050;51.776;22.638;2022-12-29T06:59:02;13.43;;;7.18;;
37157;SDS011;23050;51.776;22.638;2022-12-29T07:01:28;18.85;;;10.10;;
37157;SDS011;23050;51.776;22.638;2022-12-29T07:03:53;17.38;;;9.15;;
37157;SDS011;23050;51.776;22.638;2022-12-29T07:06:19;16.10;;;8.20;;
37157;SDS011;23050;51.776;22.638;2022-12-29T07:08:45;15.35;;;8.52;;
37157;SDS011;23050;51.776;22.638;2022-12-29T07:11:11;17.45;;;9.05;;
37157;SDS011;23050;51.776;22.638;2022-12-29T07:13:36;15.25;;;8.48;;
37157;SDS011;23050;51.776;22.638;2022-12-29T07:16:06;11.68;;;7.55;;
37157;SDS011;23050;51.776;22.638;2022-12-29T07:18:35;13.32;;;7.60;;
37157;SDS011;23050;51.776;22.638;2022-12-29T07:21:01;13.85;;;7.57;;
37157;SDS011;23050;51.776;22.638;2022-12-29T07:23:26;12.95;;;7.18;;
37157;SDS011;23050;51.776;22.638;2022-12-29T07:26:02;13.82;;;6.82;;
37157;SDS011;23050;51.776;22.638;2022-12-29T07:28:29;15.48;;;8.00;;
37157;SDS011;23050;51.776;22.638;2022-12-29T07:30:55;14.75;;;8.50;;
37157;SDS011;23050;51.776;22.638;2022-12-29T07:33:20;13.27;;;7.05;;
37157;SDS011;23050;51.776;22.638;2022-12-29T07:35:46;14.32;;;8.27;;
37157;SDS011;23050;51.776;22.638;2022-12-29T07:38:12;14.40;;;8.10;;
37157;SDS011;23050;51.776;22.638;2022-12-29T07:40:37;12.50;;;6.75;;
37157;SDS011;23050;51.776;22.638;2022-12-29T07:43:03;14.57;;;7.05;;
37157;SDS011;23050;51.776;22.638;2022-12-29T07:45:29;12.38;;;6.97;;
37157;SDS011;23050;51.776;22.638;2022-12-29T07:47:55;12.73;;;6.53;;
37157;SDS011;23050;51.776;22.638;2022-12-29T07:50:20;27.98;;;14.10;;
37157;SDS011;23050;51.776;22.638;2022-12-29T07:52:46;39.40;;;21.88;;
37157;SDS011;23050;51.776;22.638;2022-12-29T07:55:13;18.70;;;11.80;;
37157;SDS011;23050;51.776;22.638;2022-12-29T07:57:42;15.73;;;7.43;;
37157;SDS011;23050;51.776;22.638;2022-12-29T08:00:08;17.02;;;9.43;;
37157;SDS011;23050;51.776;22.638;2022-12-29T08:02:34;20.23;;;14.77;;
37157;SDS011;23050;51.776;22.638;2022-12-29T08:05:00;13.15;;;8.90;;
37157;SDS011;23050;51.776;22.638;2022-12-29T08:07:26;12.75;;;6.97;;
37157;SDS011;23050;51.776;22.638;2022-12-29T08:09:51;17.35;;;9.57;;
37157;SDS011;23050;51.776;22.638;2022-12-29T08:12:17;19.65;;;10.02;;
37157;SDS011;23050;51.776;22.638;2022-12-29T08:14:43;43.40;;;20.80;;
37157;SDS011;23050;51.776;22.638;2022-12-29T08:17:08;18.17;;;9.18;;
37157;SDS011;23050;51.776;22.638;2022-12-29T08:19:34;10.80;;;6.22;;
37157;SDS011;23050;51.776;22.638;2022-12-29T08:22:00;12.00;;;6.65;;
37157;SDS011;23050;51.776;22.638;2022-12-29T08:24:26;22.02;;;8.85;;
37157;SDS011;23050;51.776;22.638;2022-12-29T08:26:52;10.00;;;6.07;;
37157;SDS011;23050;51.776;22.638;2022-12-29T08:29:17;14.25;;;6.82;;
37157;SDS011;23050;51.776;22.638;2022-12-29T08:31:44;11.05;;;6.00;;
37157;SDS011;23050;51.776;22.638;2022-12-29T08:34:10;17.20;;;7.22;;
37157;SDS011;23050;51.776;22.638;2022-12-29T08:36:35;18.35;;;9.43;;
37157;SDS011;23050;51.776;22.638;2022-12-29T08:39:01;15.07;;;6.18;;
37157;SDS011;23050;51.776;22.638;2022-12-29T08:41:27;13.00;;;6.10;;
37157;SDS011;23050;51.776;22.638;2022-12-29T08:43:52;13.35;;;6.32;;
37157;SDS011;23050;51.776;22.638;2022-12-29T08:46:18;24.30;;;10.65;;
37157;SDS011;23050;51.776;22.638;2022-12-29T08:48:44;12.40;;;6.45;;
37157;SDS011;23050;51.776;22.638;2022-12-29T08:51:10;17.23;;;7.78;;
37157;SDS011;23050;51.776;22.638;2022-12-29T08:53:36;11.32;;;6.10;;
37157;SDS011;23050;51.776;22.638;2022-12-29T08:56:01;14.10;;;7.95;;
37157;SDS011;23050;51.776;22.638;2022-12-29T08:58:27;11.68;;;6.15;;
37157;SDS011;23050;51.776;22.638;2022-12-29T09:00:53;13.75;;;7.20;;
37157;SDS011;23050;51.776;22.638;2022-12-29T09:03:20;17.85;;;8.27;;
37157;SDS011;23050;51.776;22.638;2022-12-29T09:05:50;13.95;;;6.05;;
37157;SDS011;23050;51.776;22.638;2022-12-29T09:08:16;10.95;;;6.15;;
37157;SDS011;23050;51.776;22.638;2022-12-29T09:10:43;13.77;;;7.32;;
37157;SDS011;23050;51.776;22.638;2022-12-29T09:13:09;11.32;;;5.43;;
37157;SDS011;23050;51.776;22.638;2022-12-29T09:15:36;10.23;;;5.60;;
37157;SDS011;23050;51.776;22.638;2022-12-29T09:18:02;19.75;;;8.63;;
37157;SDS011;23050;51.776;22.638;2022-12-29T09:20:27;15.77;;;6.22;;
37157;SDS011;23050;51.776;22.638;2022-12-29T09:22:53;15.52;;;7.25;;
37157;SDS011;23050;51.776;22.638;2022-12-29T09:25:18;14.38;;;6.53;;
37157;SDS011;23050;51.776;22.638;2022-12-29T09:27:44;14.68;;;5.63;;
37157;SDS011;23050;51.776;22.638;2022-12-29T09:30:11;18.35;;;9.57;;
37157;SDS011;23050;51.776;22.638;2022-12-29T09:32:39;11.02;;;6.07;;
37157;SDS011;23050;51.776;22.638;2022-12-29T09:35:05;14.70;;;7.05;;
37157;SDS011;23050;51.776;22.638;2022-12-29T09:37:30;22.88;;;10.10;;
37157;SDS011;23050;51.776;22.638;2022-12-29T09:39:56;93.25;;;36.25;;
37157;SDS011;23050;51.776;22.638;2022-12-29T09:42:30;15.10;;;7.03;;
37157;SDS011;23050;51.776;22.638;2022-12-29T09:45:29;11.57;;;5.57;;
37157;SDS011;23050;51.776;22.638;2022-12-29T09:48:02;20.75;;;9.05;;
37157;SDS011;23050;51.776;22.638;2022-12-29T09:50:30;14.20;;;7.07;;
37157;SDS011;23050;51.776;22.638;2022-12-29T09:55:45;11.88;;;6.70;;
37157;SDS011;23050;51.776;22.638;2022-12-29T09:58:20;13.45;;;5.90;;
37157;SDS011;23050;51.776;22.638;2022-12-29T10:03:19;14.27;;;7.32;;
37157;SDS011;23050;51.776;22.638;2022-12-29T10:10:59;15.35;;;7.68;;
37157;SDS011;23050;51.776;22.638;2022-12-29T10:13:52;13.13;;;6.70;;
37157;SDS011;23050;51.776;22.638;2022-12-29T10:16:34;14.88;;;6.70;;
37157;SDS011;23050;51.776;22.638;2022-12-29T10:21:48;15.23;;;7.00;;
37157;SDS011;23050;51.776;22.638;2022-12-29T10:24:37;37.45;;;16.40;;
37157;SDS011;23050;51.776;22.638;2022-12-29T10:27:04;35.47;;;16.30;;
37157;SDS011;23050;51.776;22.638;2022-12-29T10:29:46;17.98;;;8.50;;
37157;SDS011;23050;51.776;22.638;2022-12-29T10:32:25;19.08;;;9.45;;
37157;SDS011;23050;51.776;22.638;2022-12-29T10:35:01;19.85;;;9.15;;
37157;SDS011;23050;51.776;22.638;2022-12-29T10:39:59;21.20;;;9.53;;
37157;SDS011;23050;51.776;22.638;2022-12-29T10:42:28;21.70;;;9.45;;
37157;SDS011;23050;51.776;22.638;2022-12-29T10:45:02;32.20;;;14.48;;
37157;SDS011;23050;51.776;22.638;2022-12-29T10:47:33;31.75;;;14.80;;
37157;SDS011;23050;51.776;22.638;2022-12-29T10:50:03;27.90;;;13.20;;
37157;SDS011;23050;51.776;22.638;2022-12-29T10:52:30;42.88;;;18.88;;
37157;SDS011;23050;51.776;22.638;2022-12-29T10:54:59;21.65;;;12.07;;
37157;SDS011;23050;51.776;22.638;2022-12-29T10:57:33;22.20;;;13.13;;
37157;SDS011;23050;51.776;22.638;2022-12-29T11:00:11;18.23;;;8.80;;
37157;SDS011;23050;51.776;22.638;2022-12-29T11:05:35;17.30;;;8.52;;
37157;SDS011;23050;51.776;22.638;2022-12-29T11:08:10;17.65;;;8.00;;
37157;SDS011;23050;51.776;22.638;2022-12-29T11:10:41;13.00;;;6.22;;
37157;SDS011;23050;51.776;22.638;2022-12-29T11:15:49;15.70;;;8.40;;
37157;SDS011;23050;51.776;22.638;2022-12-29T11:18:23;12.02;;;6.78;;
37157;SDS011;23050;51.776;22.638;2022-12-29T11:20:51;13.02;;;5.85;;
37157;SDS011;23050;51.776;22.638;2022-12-29T11:23:40;14.77;;;6.05;;
37157;SDS011;23050;51.776;22.638;2022-12-29T11:28:44;14.52;;;7.05;;
37157;SDS011;23050;51.776;22.638;2022-12-29T11:31:14;29.00;;;7.60;;
37157;SDS011;23050;51.776;22.638;2022-12-29T11:33:41;20.58;;;8.52;;
37157;SDS011;23050;51.776;22.638;2022-12-29T11:36:14;15.55;;;7.72;;
37157;SDS011;23050;51.776;22.638;2022-12-29T11:38:45;17.48;;;8.95;;
37157;SDS011;23050;51.776;22.638;2022-12-29T11:41:18;28.30;;;12.82;;
37157;SDS011;23050;51.776;22.638;2022-12-29T11:43:47;26.80;;;13.15;;
37157;SDS011;23050;51.776;22.638;2022-12-29T11:46:20;12.25;;;7.53;;
37157;SDS011;23050;51.776;22.638;2022-12-29T11:48:50;19.63;;;9.10;;
37157;SDS011;23050;51.776;22.638;2022-12-29T11:51:23;17.98;;;9.40;;
37157;SDS011;23050;51.776;22.638;2022-12-29T11:54:00;27.67;;;12.80;;
37157;SDS011;23050;51.776;22.638;2022-12-29T11:56:33;18.10;;;9.52;;
37157;SDS011;23050;51.776;22.638;2022-12-29T12:01:53;19.83;;;10.10;;
37157;SDS011;23050;51.776;22.638;2022-12-29T12:04:21;15.15;;;8.30;;
37157;SDS011;23050;51.776;22.638;2022-12-29T12:06:57;18.33;;;9.70;;
37157;SDS011;23050;51.776;22.638;2022-12-29T12:09:47;17.83;;;10.32;;
37157;SDS011;23050;51.776;22.638;2022-12-29T12:12:37;19.63;;;9.52;;
37157;SDS011;23050;51.776;22.638;2022-12-29T12:15:08;22.27;;;11.25;;
37157;SDS011;23050;51.776;22.638;2022-12-29T12:17:49;16.27;;;8.23;;
37157;SDS011;23050;51.776;22.638;2022-12-29T12:20:38;12.32;;;6.63;;
37157;SDS011;23050;51.776;22.638;2022-12-29T12:25:51;13.73;;;7.40;;
37157;SDS011;23050;51.776;22.638;2022-12-29T12:28:45;16.95;;;9.07;;
37157;SDS011;23050;51.776;22.638;2022-12-29T12:34:14;16.60;;;7.78;;
37157;SDS011;23050;51.776;22.638;2022-12-29T12:36:58;22.67;;;11.18;;
37157;SDS011;23050;51.776;22.638;2022-12-29T12:42:52;21.30;;;11.23;;
37157;SDS011;23050;51.776;22.638;2022-12-29T12:46:07;32.60;;;15.35;;
37157;SDS011;23050;51.776;22.638;2022-12-29T12:56:51;38.28;;;19.58;;
37157;SDS011;23050;51.776;22.638;2022-12-29T12:59:42;28.58;;;13.65;;
37157;SDS011;23050;51.776;22.638;2022-12-29T13:16:02;21.77;;;10.70;;
37157;SDS011;23050;51.776;22.638;2022-12-29T13:19:30;16.30;;;9.93;;
37157;SDS011;23050;51.776;22.638;2022-12-29T13:26:46;15.75;;;9.32;;
37157;SDS011;23050;51.776;22.638;2022-12-29T13:29:50;22.05;;;9.43;;
37157;SDS011;23050;51.776;22.638;2022-12-29T13:40:16;31.20;;;14.13;;
37157;SDS011;23050;51.776;22.638;2022-12-29T13:42:43;23.20;;;10.20;;
37157;SDS011;23050;51.776;22.638;2022-12-29T13:45:13;14.75;;;8.23;;
37157;SDS011;23050;51.776;22.638;2022-12-29T13:50:21;19.33;;;11.23;;
37157;SDS011;23050;51.776;22.638;2022-12-29T13:55:35;33.75;;;14.88;;
37157;SDS011;23050;51.776;22.638;2022-12-29T14:03:23;15.30;;;8.47;;
37157;SDS011;23050;51.776;22.638;2022-12-29T14:06:14;18.30;;;9.35;;
37157;SDS011;23050;51.776;22.638;2022-12-29T14:09:00;17.55;;;10.57;;
37157;SDS011;23050;51.776;22.638;2022-12-29T14:11:34;14.07;;;8.13;;
37157;SDS011;23050;51.776;22.638;2022-12-29T14:14:13;15.68;;;8.85;;
37157;SDS011;23050;51.776;22.638;2022-12-29T14:16:47;38.42;;;19.27;;
37157;SDS011;23050;51.776;22.638;2022-12-29T14:19:15;87.28;;;35.85;;
37157;SDS011;23050;51.776;22.638;2022-12-29T14:21:52;62.05;;;31.48;;
37157;SDS011;23050;51.776;22.638;2022-12-29T14:34:51;17.75;;;7.75;;
37157;SDS011;23050;51.776;22.638;2022-12-29T14:37:28;15.57;;;8.30;;
37157;SDS011;23050;51.776;22.638;2022-12-29T14:42:39;23.50;;;11.43;;
37157;SDS011;23050;51.776;22.638;2022-12-29T14:47:39;36.45;;;20.58;;
37157;SDS011;23050;51.776;22.638;2022-12-29T14:50:17;17.45;;;9.32;;
37157;SDS011;23050;51.776;22.638;2022-12-29T14:52:56;26.15;;;12.43;;
37157;SDS011;23050;51.776;22.638;2022-12-29T14:55:32;39.58;;;18.92;;
37157;SDS011;23050;51.776;22.638;2022-12-29T14:58:05;70.35;;;29.15;;
37157;SDS011;23050;51.776;22.638;2022-12-29T15:00:37;84.55;;;31.73;;
37157;SDS011;23050;51.776;22.638;2022-12-29T15:03:12;156.18;;;52.53;;
37157;SDS011;23050;51.776;22.638;2022-12-29T15:05:54;84.88;;;33.58;;
37157;SDS011;23050;51.776;22.638;2022-12-29T15:08:24;100.93;;;38.88;;
37157;SDS011;23050;51.776;22.638;2022-12-29T15:10:53;108.47;;;41.53;;
37157;SDS011;23050;51.776;22.638;2022-12-29T15:13:31;35.45;;;17.73;;
37157;SDS011;23050;51.776;22.638;2022-12-29T15:16:03;128.13;;;55.43;;
37157;SDS011;23050;51.776;22.638;2022-12-29T15:18:30;48.13;;;22.92;;
37157;SDS011;23050;51.776;22.638;2022-12-29T15:20:58;49.25;;;27.27;;
37157;SDS011;23050;51.776;22.638;2022-12-29T15:23:26;118.03;;;59.08;;
37157;SDS011;23050;51.776;22.638;2022-12-29T15:25:58;94.57;;;44.30;;
37157;SDS011;23050;51.776;22.638;2022-12-29T15:28:25;87.20;;;41.17;;
37157;SDS011;23050;51.776;22.638;2022-12-29T15:33:21;69.95;;;29.45;;
37157;SDS011;23050;51.776;22.638;2022-12-29T15:35:52;31.63;;;16.42;;
37157;SDS011;23050;51.776;22.638;2022-12-29T15:40:51;67.88;;;26.95;;
37157;SDS011;23050;51.776;22.638;2022-12-29T15:46:03;66.90;;;33.33;;
37157;SDS011;23050;51.776;22.638;2022-12-29T15:48:29;29.30;;;15.80;;
37157;SDS011;23050;51.776;22.638;2022-12-29T15:50:56;45.17;;;21.05;;
37157;SDS011;23050;51.776;22.638;2022-12-29T15:53:24;32.85;;;14.05;;
37157;SDS011;23050;51.776;22.638;2022-12-29T15:55:57;27.95;;;11.95;;
37157;SDS011;23050;51.776;22.638;2022-12-29T15:58:27;24.20;;;10.60;;
37157;SDS011;23050;51.776;22.638;2022-12-29T16:00:58;31.43;;;11.73;;
37157;SDS011;23050;51.776;22.638;2022-12-29T16:03:25;28.02;;;11.73;;
37157;SDS011;23050;51.776;22.638;2022-12-29T16:06:09;29.77;;;12.30;;
37157;SDS011;23050;51.776;22.638;2022-12-29T16:08:56;30.30;;;11.60;;
37157;SDS011;23050;51.776;22.638;2022-12-29T16:11:36;34.70;;;14.18;;
37157;SDS011;23050;51.776;22.638;2022-12-29T16:14:07;28.73;;;12.05;;
37157;SDS011;23050;51.776;22.638;2022-12-29T16:16:36;36.83;;;14.07;;
37157;SDS011;23050;51.776;22.638;2022-12-29T16:19:08;28.77;;;12.38;;
37157;SDS011;23050;51.776;22.638;2022-12-29T16:21:38;51.95;;;26.42;;
37157;SDS011;23050;51.776;22.638;2022-12-29T16:24:08;22.25;;;10.75;;
37157;SDS011;23050;51.776;22.638;2022-12-29T16:26:45;29.48;;;12.65;;
37157;SDS011;23050;51.776;22.638;2022-12-29T16:29:12;35.65;;;18.00;;
37157;SDS011;23050;51.776;22.638;2022-12-29T16:39:24;19.65;;;10.70;;
37157;SDS011;23050;51.776;22.638;2022-12-29T16:41:56;18.23;;;9.30;;
37157;SDS011;23050;51.776;22.638;2022-12-29T16:44:23;20.00;;;10.27;;
37157;SDS011;23050;51.776;22.638;2022-12-29T16:46:59;19.05;;;10.52;;
37157;SDS011;23050;51.776;22.638;2022-12-29T16:49:27;23.65;;;10.25;;
37157;SDS011;23050;51.776;22.638;2022-12-29T16:51:54;18.88;;;10.40;;
37157;SDS011;23050;51.776;22.638;2022-12-29T16:54:24;20.05;;;10.52;;
37157;SDS011;23050;51.776;22.638;2022-12-29T16:56:53;19.15;;;10.73;;
37157;SDS011;23050;51.776;22.638;2022-12-29T16:59:33;18.92;;;10.95;;
37157;SDS011;23050;51.776;22.638;2022-12-29T17:02:12;20.80;;;9.68;;
37157;SDS011;23050;51.776;22.638;2022-12-29T17:04:40;19.75;;;9.95;;
37157;SDS011;23050;51.776;22.638;2022-12-29T17:07:19;29.60;;;15.38;;
37157;SDS011;23050;51.776;22.638;2022-12-29T17:09:49;28.25;;;13.82;;
37157;SDS011;23050;51.776;22.638;2022-12-29T17:12:26;63.17;;;35.70;;